sensor_id;sensor_type;location;lat;lon;timestamp;pressure;altitude;pressure_sealevel;temperature;humidity
64610;BME280;51019;46.090;6.350;2023-11-18T00:01:31;97495.88;;;3.44;100.00
64610;BME280;51019;46.090;6.350;2023-11-18T00:04:01;97490.16;;;3.37;100.00
64610;BME280;51019;46.090;6.350;2023-11-18T00:06:28;97483.56;;;3.30;100.00
64610;BME280;51019;46.090;6.350;2023-11-18T00:08:56;97484.69;;;3.07;100.00
64610;BME280;51019;46.090;6.350;2023-11-18T00:11:24;97478.56;;;3.44;100.00
64610;BME280;51019;46.090;6.350;2023-11-18T00:13:51;97481.53;;;3.54;100.00
64610;BME280;51019;46.090;6.350;2023-11-18T00:16:19;97479.63;;;3.57;100.00
64610;BME280;51019;46.090;6.350;2023-11-18T00:18:47;97486.94;;;3.67;100.00
64610;BME280;51019;46.090;6.350;2023-11-18T00:21:18;97500.97;;;3.62;100.00
64610;BME280;51019;46.090;6.350;2023-11-18T00:23:45;97492.16;;;3.49;100.00
64610;BME280;51019;46.090;6.350;2023-11-18T00:26:14;97493.22;;;3.45;100.00
64610;BME280;51019;46.090;6.350;2023-11-18T00:28:42;97507.53;;;3.52;100.00
64610;BME280;51019;46.090;6.350;2023-11-18T00:31:09;97503.44;;;3.48;100.00
64610;BME280;51019;46.090;6.350;2023-11-18T00:33:37;97509.44;;;3.49;100.00
64610;BME280;51019;46.090;6.350;2023-11-18T00:36:06;97476.88;;;3.26;100.00
64610;BME280;51019;46.090;6.350;2023-11-18T00:38:37;97485.13;;;3.34;100.00
64610;BME280;51019;46.090;6.350;2023-11-18T00:41:06;97503.72;;;3.42;100.00
64610;BME280;51019;46.090;6.350;2023-11-18T00:43:33;97494.13;;;3.44;100.00
64610;BME280;51019;46.090;6.350;2023-11-18T00:46:01;97517.75;;;3.38;100.00
64610;BME280;51019;46.090;6.350;2023-11-18T00:48:28;97502.22;;;3.38;100.00
64610;BME280;51019;46.090;6.350;2023-11-18T00:50:55;97493.06;;;3.48;100.00
64610;BME280;51019;46.090;6.350;2023-11-18T00:53:24;97509.06;;;3.56;100.00
64610;BME280;51019;46.090;6.350;2023-11-18T00:55:53;97507.06;;;3.44;100.00
64610;BME280;51019;46.090;6.350;2023-11-18T00:58:20;97509.59;;;3.46;100.00
64610;BME280;51019;46.090;6.350;2023-11-18T01:00:47;97515.31;;;3.35;100.00
64610;BME280;51019;46.090;6.350;2023-11-18T01:03:15;97511.94;;;3.33;100.00
64610;BME280;51019;46.090;6.350;2023-11-18T01:05:43;97502.16;;;3.04;100.00
64610;BME280;51019;46.090;6.350;2023-11-18T01:08:10;97517.72;;;3.21;100.00
64610;BME280;51019;46.090;6.350;2023-11-18T01:10:37;97512.84;;;3.15;100.00
64610;BME280;51019;46.090;6.350;2023-11-18T01:13:06;97510.81;;;3.03;100.00
64610;BME280;51019;46.090;6.350;2023-11-18T01:15:34;97522.44;;;3.13;100.00
64610;BME280;51019;46.090;6.350;2023-11-18T01:18:01;97520.19;;;3.05;100.00
64610;BME280;51019;46.090;6.350;2023-11-18T01:20:29;97530.72;;;3.02;100.00
64610;BME280;51019;46.090;6.350;2023-11-18T01:22:58;97527.00;;;2.89;100.00
64610;BME280;51019;46.090;6.350;2023-11-18T01:25:25;97531.25;;;3.09;100.00
64610;BME280;51019;46.090;6.350;2023-11-18T01:27:52;97526.31;;;3.04;100.00
64610;BME280;51019;46.090;6.350;2023-11-18T01:30:21;97532.13;;;2.90;100.00
64610;BME280;51019;46.090;6.350;2023-11-18T01:32:49;97517.00;;;2.44;100.00
64610;BME280;51019;46.090;6.350;2023-11-18T01:35:16;97520.66;;;2.77;100.00
64610;BME280;51019;46.090;6.350;2023-11-18T01:37:43;97524.50;;;2.87;100.00
64610;BME280;51019;46.090;6.350;2023-11-18T01:40:11;97517.69;;;2.85;100.00
64610;BME280;51019;46.090;6.350;2023-11-18T01:42:42;97520.78;;;2.93;100.00
64610;BME280;51019;46.090;6.350;2023-11-18T01:45:09;97525.47;;;2.85;100.00
64610;BME280;51019;46.090;6.350;2023-11-18T01:47:39;97521.13;;;2.85;100.00
64610;BME280;51019;46.090;6.350;2023-11-18T01:50:08;97514.81;;;2.72;100.00
64610;BME280;51019;46.090;6.350;2023-11-18T01:52:37;97516.84;;;3.03;100.00
64610;BME280;51019;46.090;6.350;2023-11-18T01:55:05;97511.53;;;2.87;100.00
64610;BME280;51019;46.090;6.350;2023-11-18T01:57:32;97487.91;;;2.76;100.00
64610;BME280;51019;46.090;6.350;2023-11-18T01:59:59;97503.47;;;2.93;100.00
64610;BME280;51019;46.090;6.350;2023-11-18T02:02:31;97499.63;;;2.83;100.00
64610;BME280;51019;46.090;6.350;2023-11-18T02:05:03;97501.66;;;2.96;100.00
64610;BME280;51019;46.090;6.350;2023-11-18T02:07:32;97489.78;;;2.73;100.00
64610;BME280;51019;46.090;6.350;2023-11-18T02:10:01;97501.88;;;2.72;100.00
64610;BME280;51019;46.090;6.350;2023-11-18T02:12:37;97491.41;;;2.57;100.00
64610;BME280;51019;46.090;6.350;2023-11-18T02:15:06;97491.19;;;2.80;100.00
64610;BME280;51019;46.090;6.350;2023-11-18T02:17:37;97485.53;;;2.53;100.00
64610;BME280;51019;46.090;6.350;2023-11-18T02:20:08;97470.34;;;2.64;100.00
64610;BME280;51019;46.090;6.350;2023-11-18T02:22:42;97489.25;;;2.47;100.00
64610;BME280;51019;46.090;6.350;2023-11-18T02:25:10;97494.69;;;2.41;100.00
64610;BME280;51019;46.090;6.350;2023-11-18T02:27:44;97495.81;;;2.36;100.00
64610;BME280;51019;46.090;6.350;2023-11-18T02:30:12;97513.56;;;2.43;100.00
64610;BME280;51019;46.090;6.350;2023-11-18T02:32:47;97515.38;;;2.23;100.00
64610;BME280;51019;46.090;6.350;2023-11-18T02:35:22;97491.88;;;2.27;100.00
64610;BME280;51019;46.090;6.350;2023-11-18T02:37:52;97519.53;;;2.45;100.00
64610;BME280;51019;46.090;6.350;2023-11-18T02:40:26;97536.56;;;2.49;100.00
64610;BME280;51019;46.090;6.350;2023-11-18T02:42:58;97544.69;;;2.42;100.00
64610;BME280;51019;46.090;6.350;2023-11-18T02:45:27;97542.75;;;2.47;100.00
64610;BME280;51019;46.090;6.350;2023-11-18T02:47:55;97538.13;;;2.35;100.00
64610;BME280;51019;46.090;6.350;2023-11-18T02:50:23;97550.00;;;2.39;100.00
64610;BME280;51019;46.090;6.350;2023-11-18T02:52:50;97541.81;;;2.29;100.00
64610;BME280;51019;46.090;6.350;2023-11-18T02:55:16;97529.19;;;2.03;100.00
64610;BME280;51019;46.090;6.350;2023-11-18T02:57:43;97513.56;;;2.25;100.00
64610;BME280;51019;46.090;6.350;2023-11-18T03:00:14;97509.13;;;2.47;100.00
64610;BME280;51019;46.090;6.350;2023-11-18T03:02:47;97500.50;;;2.65;100.00
64610;BME280;51019;46.090;6.350;2023-11-18T03:05:17;97510.44;;;2.74;100.00
64610;BME280;51019;46.090;6.350;2023-11-18T03:07:44;97504.97;;;2.43;100.00
64610;BME280;51019;46.090;6.350;2023-11-18T03:10:12;97472.72;;;2.50;100.00
64610;BME280;51019;46.090;6.350;2023-11-18T03:12:46;97504.97;;;2.80;100.00
64610;BME280;51019;46.090;6.350;2023-11-18T03:15:15;97512.56;;;3.02;100.00
64610;BME280;51019;46.090;6.350;2023-11-18T03:17:44;97513.09;;;2.73;100.00
64610;BME280;51019;46.090;6.350;2023-11-18T03:20:11;97495.03;;;2.52;100.00
64610;BME280;51019;46.090;6.350;2023-11-18T03:22:42;97513.75;;;2.59;100.00
64610;BME280;51019;46.090;6.350;2023-11-18T03:25:11;97503.38;;;2.59;100.00
64610;BME280;51019;46.090;6.350;2023-11-18T03:27:38;97510.09;;;2.44;100.00
64610;BME280;51019;46.090;6.350;2023-11-18T03:30:07;97495.09;;;2.51;100.00
64610;BME280;51019;46.090;6.350;2023-11-18T03:32:36;97498.13;;;2.42;100.00
64610;BME280;51019;46.090;6.350;2023-11-18T03:35:05;97503.84;;;2.48;100.00
64610;BME280;51019;46.090;6.350;2023-11-18T03:37:34;97481.88;;;2.38;100.00
64610;BME280;51019;46.090;6.350;2023-11-18T03:40:03;97488.59;;;2.42;100.00
64610;BME280;51019;46.090;6.350;2023-11-18T03:42:30;97494.34;;;2.49;100.00
64610;BME280;51019;46.090;6.350;2023-11-18T03:44:57;97493.44;;;2.31;100.00
64610;BME280;51019;46.090;6.350;2023-11-18T03:47:25;97481.16;;;2.36;100.00
64610;BME280;51019;46.090;6.350;2023-11-18T03:49:53;97476.66;;;2.21;100.00
64610;BME280;51019;46.090;6.350;2023-11-18T03:52:20;97488.75;;;2.21;100.00
64610;BME280;51019;46.090;6.350;2023-11-18T03:54:47;97500.22;;;2.34;100.00
64610;BME280;51019;46.090;6.350;2023-11-18T03:57:15;97506.66;;;2.25;100.00
64610;BME280;51019;46.090;6.350;2023-11-18T03:59:42;97509.50;;;2.19;100.00
64610;BME280;51019;46.090;6.350;2023-11-18T04:02:09;97508.44;;;1.84;100.00
64610;BME280;51019;46.090;6.350;2023-11-18T04:04:37;97508.41;;;2.04;100.00
64610;BME280;51019;46.090;6.350;2023-11-18T04:07:06;97506.59;;;2.06;100.00
64610;BME280;51019;46.090;6.350;2023-11-18T04:09:33;97507.88;;;2.16;100.00
64610;BME280;51019;46.090;6.350;2023-11-18T04:12:00;97503.47;;;2.18;100.00
64610;BME280;51019;46.090;6.350;2023-11-18T04:14:29;97477.38;;;2.04;100.00
64610;BME280;51019;46.090;6.350;2023-11-18T04:16:57;97492.34;;;2.16;100.00
64610;BME280;51019;46.090;6.350;2023-11-18T04:19:24;97499.09;;;2.39;100.00
64610;BME280;51019;46.090;6.350;2023-11-18T04:21:51;97499.25;;;2.36;100.00
64610;BME280;51019;46.090;6.350;2023-11-18T04:24:20;97484.69;;;2.34;100.00
64610;BME280;51019;46.090;6.350;2023-11-18T04:26:47;97490.84;;;2.12;100.00
64610;BME280;51019;46.090;6.350;2023-11-18T04:29:14;97497.16;;;2.26;100.00
64610;BME280;51019;46.090;6.350;2023-11-18T04:31:41;97484.41;;;2.40;100.00
64610;BME280;51019;46.090;6.350;2023-11-18T04:34:08;97493.78;;;2.42;100.00
64610;BME280;51019;46.090;6.350;2023-11-18T04:36:35;97494.19;;;1.94;100.00
64610;BME280;51019;46.090;6.350;2023-11-18T04:39:03;97492.22;;;2.19;100.00
64610;BME280;51019;46.090;6.350;2023-11-18T04:41:31;97481.59;;;2.07;100.00
64610;BME280;51019;46.090;6.350;2023-11-18T04:43:58;97493.91;;;2.21;100.00
64610;BME280;51019;46.090;6.350;2023-11-18T04:46:25;97495.94;;;2.33;100.00
64610;BME280;51019;46.090;6.350;2023-11-18T04:48:52;97497.56;;;2.35;100.00
64610;BME280;51019;46.090;6.350;2023-11-18T04:51:20;97490.44;;;2.59;100.00
64610;BME280;51019;46.090;6.350;2023-11-18T04:53:48;97492.03;;;2.43;100.00
64610;BME280;51019;46.090;6.350;2023-11-18T04:56:15;97490.22;;;2.64;100.00
64610;BME280;51019;46.090;6.350;2023-11-18T04:58:46;97488.03;;;2.73;100.00
64610;BME280;51019;46.090;6.350;2023-11-18T05:01:14;97494.91;;;2.55;100.00
64610;BME280;51019;46.090;6.350;2023-11-18T05:03:41;97485.41;;;2.56;100.00
64610;BME280;51019;46.090;6.350;2023-11-18T05:06:08;97489.59;;;2.77;100.00
64610;BME280;51019;46.090;6.350;2023-11-18T05:08:35;97491.75;;;2.68;100.00
64610;BME280;51019;46.090;6.350;2023-11-18T05:11:02;97474.84;;;2.42;100.00
64610;BME280;51019;46.090;6.350;2023-11-18T05:13:30;97488.13;;;2.53;100.00
64610;BME280;51019;46.090;6.350;2023-11-18T05:15:59;97485.97;;;2.44;100.00
64610;BME280;51019;46.090;6.350;2023-11-18T05:18:27;97480.28;;;2.54;100.00
64610;BME280;51019;46.090;6.350;2023-11-18T05:20:58;97487.31;;;2.88;100.00
64610;BME280;51019;46.090;6.350;2023-11-18T05:23:26;97485.66;;;2.87;100.00
64610;BME280;51019;46.090;6.350;2023-11-18T05:25:55;97502.59;;;2.76;100.00
64610;BME280;51019;46.090;6.350;2023-11-18T05:28:23;97498.69;;;2.67;100.00
64610;BME280;51019;46.090;6.350;2023-11-18T05:30:51;97494.13;;;2.72;100.00
64610;BME280;51019;46.090;6.350;2023-11-18T05:33:20;97500.22;;;2.71;100.00
64610;BME280;51019;46.090;6.350;2023-11-18T05:35:47;97496.38;;;2.61;100.00
64610;BME280;51019;46.090;6.350;2023-11-18T05:38:15;97471.69;;;2.54;100.00
64610;BME280;51019;46.090;6.350;2023-11-18T05:40:44;97506.38;;;2.69;100.00
64610;BME280;51019;46.090;6.350;2023-11-18T05:43:21;97487.78;;;2.42;100.00
64610;BME280;51019;46.090;6.350;2023-11-18T05:45:50;97474.97;;;2.76;100.00
64610;BME280;51019;46.090;6.350;2023-11-18T05:48:32;97489.09;;;3.05;100.00
64610;BME280;51019;46.090;6.350;2023-11-18T05:50:59;97443.44;;;2.68;100.00
64610;BME280;51019;46.090;6.350;2023-11-18T05:53:26;97492.94;;;2.79;100.00
64610;BME280;51019;46.090;6.350;2023-11-18T05:55:53;97452.69;;;2.72;100.00
64610;BME280;51019;46.090;6.350;2023-11-18T05:58:21;97479.44;;;3.09;100.00
64610;BME280;51019;46.090;6.350;2023-11-18T06:00:48;97477.00;;;3.06;100.00
64610;BME280;51019;46.090;6.350;2023-11-18T06:03:15;97450.44;;;2.83;100.00
64610;BME280;51019;46.090;6.350;2023-11-18T06:05:45;97476.53;;;2.98;100.00
64610;BME280;51019;46.090;6.350;2023-11-18T06:08:12;97442.00;;;2.80;100.00
64610;BME280;51019;46.090;6.350;2023-11-18T06:10:39;97450.19;;;3.07;100.00
64610;BME280;51019;46.090;6.350;2023-11-18T06:13:06;97456.97;;;3.09;100.00
64610;BME280;51019;46.090;6.350;2023-11-18T06:15:34;97444.69;;;2.96;100.00
64610;BME280;51019;46.090;6.350;2023-11-18T06:18:04;97448.34;;;2.91;100.00
64610;BME280;51019;46.090;6.350;2023-11-18T06:20:34;97459.69;;;2.89;100.00
64610;BME280;51019;46.090;6.350;2023-11-18T06:23:05;97464.78;;;2.90;100.00
64610;BME280;51019;46.090;6.350;2023-11-18T06:25:32;97443.34;;;2.70;100.00
64610;BME280;51019;46.090;6.350;2023-11-18T06:28:00;97448.94;;;2.79;100.00
64610;BME280;51019;46.090;6.350;2023-11-18T06:30:28;97448.28;;;2.93;100.00
64610;BME280;51019;46.090;6.350;2023-11-18T06:32:56;97436.00;;;2.79;100.00
64610;BME280;51019;46.090;6.350;2023-11-18T06:35:23;97406.34;;;2.49;100.00
64610;BME280;51019;46.090;6.350;2023-11-18T06:37:50;97414.22;;;2.29;100.00
64610;BME280;51019;46.090;6.350;2023-11-18T06:40:19;97449.50;;;2.67;100.00
64610;BME280;51019;46.090;6.350;2023-11-18T06:42:47;97461.91;;;2.42;100.00
64610;BME280;51019;46.090;6.350;2023-11-18T06:45:14;97449.88;;;2.60;100.00
64610;BME280;51019;46.090;6.350;2023-11-18T06:47:42;97434.34;;;2.60;100.00
64610;BME280;51019;46.090;6.350;2023-11-18T06:50:10;97444.25;;;2.69;100.00
64610;BME280;51019;46.090;6.350;2023-11-18T06:52:39;97451.34;;;2.82;100.00
64610;BME280;51019;46.090;6.350;2023-11-18T06:55:08;97475.59;;;2.81;100.00
64610;BME280;51019;46.090;6.350;2023-11-18T06:57:41;97478.53;;;2.55;100.00
64610;BME280;51019;46.090;6.350;2023-11-18T07:00:11;97468.06;;;2.58;100.00
64610;BME280;51019;46.090;6.350;2023-11-18T07:02:41;97479.03;;;2.63;100.00
64610;BME280;51019;46.090;6.350;2023-11-18T07:05:10;97483.53;;;2.96;100.00
64610;BME280;51019;46.090;6.350;2023-11-18T07:07:40;97482.91;;;2.90;100.00
64610;BME280;51019;46.090;6.350;2023-11-18T07:10:08;97460.69;;;2.49;100.00
64610;BME280;51019;46.090;6.350;2023-11-18T07:12:43;97492.13;;;2.96;100.00
64610;BME280;51019;46.090;6.350;2023-11-18T07:15:12;97499.06;;;2.96;100.00
64610;BME280;51019;46.090;6.350;2023-11-18T07:17:40;97497.47;;;2.93;100.00
64610;BME280;51019;46.090;6.350;2023-11-18T07:20:08;97498.22;;;3.14;100.00
64610;BME280;51019;46.090;6.350;2023-11-18T07:22:40;97489.16;;;3.40;100.00
64610;BME280;51019;46.090;6.350;2023-11-18T07:25:09;97485.28;;;3.48;100.00
64610;BME280;51019;46.090;6.350;2023-11-18T07:27:37;97487.28;;;3.60;100.00
64610;BME280;51019;46.090;6.350;2023-11-18T07:30:10;97491.63;;;3.60;100.00
64610;BME280;51019;46.090;6.350;2023-11-18T07:32:39;97489.25;;;3.55;100.00
64610;BME280;51019;46.090;6.350;2023-11-18T07:35:07;97474.28;;;3.43;100.00
64610;BME280;51019;46.090;6.350;2023-11-18T07:37:35;97502.44;;;3.68;100.00
64610;BME280;51019;46.090;6.350;2023-11-18T07:40:03;97505.41;;;3.43;100.00
64610;BME280;51019;46.090;6.350;2023-11-18T07:42:31;97492.97;;;2.97;100.00
64610;BME280;51019;46.090;6.350;2023-11-18T07:45:00;97495.88;;;2.90;100.00
64610;BME280;51019;46.090;6.350;2023-11-18T07:47:32;97508.31;;;3.72;100.00
64610;BME280;51019;46.090;6.350;2023-11-18T07:50:00;97515.16;;;3.90;100.00
64610;BME280;51019;46.090;6.350;2023-11-18T07:52:29;97510.59;;;3.60;100.00
64610;BME280;51019;46.090;6.350;2023-11-18T07:54:57;97498.97;;;3.85;100.00
64610;BME280;51019;46.090;6.350;2023-11-18T07:57:26;97506.75;;;4.02;100.00
64610;BME280;51019;46.090;6.350;2023-11-18T07:59:54;97517.13;;;4.35;100.00
64610;BME280;51019;46.090;6.350;2023-11-18T08:02:22;97522.44;;;4.16;100.00
64610;BME280;51019;46.090;6.350;2023-11-18T08:04:52;97497.00;;;4.23;100.00
64610;BME280;51019;46.090;6.350;2023-11-18T08:07:20;97528.75;;;4.28;100.00
64610;BME280;51019;46.090;6.350;2023-11-18T08:09:48;97525.69;;;4.53;100.00
64610;BME280;51019;46.090;6.350;2023-11-18T08:12:15;97536.44;;;4.78;100.00
64610;BME280;51019;46.090;6.350;2023-11-18T08:14:42;97538.47;;;4.89;100.00
64610;BME280;51019;46.090;6.350;2023-11-18T08:17:10;97533.13;;;4.43;100.00
64610;BME280;51019;46.090;6.350;2023-11-18T08:19:39;97543.56;;;4.74;100.00
64610;BME280;51019;46.090;6.350;2023-11-18T08:22:09;97546.78;;;4.95;100.00
64610;BME280;51019;46.090;6.350;2023-11-18T08:24:37;97526.78;;;4.49;100.00
64610;BME280;51019;46.090;6.350;2023-11-18T08:27:05;97534.19;;;4.72;100.00
64610;BME280;51019;46.090;6.350;2023-11-18T08:29:32;97524.81;;;5.01;100.00
64610;BME280;51019;46.090;6.350;2023-11-18T08:32:00;97516.50;;;5.10;100.00
64610;BME280;51019;46.090;6.350;2023-11-18T08:34:27;97525.91;;;5.28;100.00
64610;BME280;51019;46.090;6.350;2023-11-18T08:36:54;97510.44;;;5.41;100.00
64610;BME280;51019;46.090;6.350;2023-11-18T08:39:23;97505.75;;;5.32;100.00
64610;BME280;51019;46.090;6.350;2023-11-18T08:41:54;97511.22;;;5.57;100.00
64610;BME280;51019;46.090;6.350;2023-11-18T08:44:22;97511.19;;;5.73;100.00
64610;BME280;51019;46.090;6.350;2023-11-18T08:46:54;97502.63;;;5.71;100.00
64610;BME280;51019;46.090;6.350;2023-11-18T08:49:24;97483.38;;;5.59;100.00
64610;BME280;51019;46.090;6.350;2023-11-18T08:51:56;97482.28;;;5.63;100.00
64610;BME280;51019;46.090;6.350;2023-11-18T08:54:25;97493.16;;;5.70;100.00
64610;BME280;51019;46.090;6.350;2023-11-18T08:57:03;97492.19;;;5.87;100.00
64610;BME280;51019;46.090;6.350;2023-11-18T08:59:45;97494.72;;;5.88;100.00
64610;BME280;51019;46.090;6.350;2023-11-18T09:02:12;97476.06;;;5.96;100.00
64610;BME280;51019;46.090;6.350;2023-11-18T09:04:41;97492.69;;;6.22;100.00
64610;BME280;51019;46.090;6.350;2023-11-18T09:07:09;97490.34;;;5.89;100.00
64610;BME280;51019;46.090;6.350;2023-11-18T09:09:39;97484.06;;;6.07;100.00
64610;BME280;51019;46.090;6.350;2023-11-18T09:12:07;97496.44;;;6.17;100.00
64610;BME280;51019;46.090;6.350;2023-11-18T09:14:34;97499.69;;;6.07;100.00
64610;BME280;51019;46.090;6.350;2023-11-18T09:17:09;97501.75;;;5.86;100.00
64610;BME280;51019;46.090;6.350;2023-11-18T09:19:37;97500.44;;;6.09;100.00
64610;BME280;51019;46.090;6.350;2023-11-18T09:22:07;97487.78;;;6.03;100.00
64610;BME280;51019;46.090;6.350;2023-11-18T09:24:40;97503.78;;;6.53;100.00
64610;BME280;51019;46.090;6.350;2023-11-18T09:27:07;97487.09;;;6.56;100.00
64610;BME280;51019;46.090;6.350;2023-11-18T09:29:35;97492.63;;;6.66;100.00
64610;BME280;51019;46.090;6.350;2023-11-18T09:32:05;97493.63;;;6.35;100.00
64610;BME280;51019;46.090;6.350;2023-11-18T09:34:33;97490.19;;;6.63;100.00
64610;BME280;51019;46.090;6.350;2023-11-18T09:37:05;97482.06;;;6.81;100.00
64610;BME280;51019;46.090;6.350;2023-11-18T09:39:35;97445.22;;;6.73;100.00
64610;BME280;51019;46.090;6.350;2023-11-18T09:42:14;97477.25;;;7.02;100.00
64610;BME280;51019;46.090;6.350;2023-11-18T09:44:50;97480.75;;;7.15;100.00
64610;BME280;51019;46.090;6.350;2023-11-18T09:47:21;97445.50;;;6.69;100.00
64610;BME280;51019;46.090;6.350;2023-11-18T09:49:56;97486.25;;;6.84;100.00
64610;BME280;51019;46.090;6.350;2023-11-18T09:52:27;97504.09;;;6.90;100.00
64610;BME280;51019;46.090;6.350;2023-11-18T09:55:03;97500.19;;;6.83;100.00
64610;BME280;51019;46.090;6.350;2023-11-18T09:57:46;97502.22;;;6.92;100.00
64610;BME280;51019;46.090;6.350;2023-11-18T10:00:24;97500.53;;;7.05;100.00
64610;BME280;51019;46.090;6.350;2023-11-18T10:02:58;97495.34;;;6.91;100.00
64610;BME280;51019;46.090;6.350;2023-11-18T10:05:27;97466.47;;;6.53;100.00
64610;BME280;51019;46.090;6.350;2023-11-18T10:07:57;97440.53;;;6.37;100.00
64610;BME280;51019;46.090;6.350;2023-11-18T10:10:27;97470.53;;;6.71;100.00
64610;BME280;51019;46.090;6.350;2023-11-18T10:13:03;97457.50;;;6.71;100.00
64610;BME280;51019;46.090;6.350;2023-11-18T10:15:34;97452.78;;;6.64;100.00
64610;BME280;51019;46.090;6.350;2023-11-18T10:18:03;97454.03;;;7.12;100.00
64610;BME280;51019;46.090;6.350;2023-11-18T10:20:45;97422.22;;;6.80;100.00
64610;BME280;51019;46.090;6.350;2023-11-18T10:23:19;97448.47;;;7.31;100.00
64610;BME280;51019;46.090;6.350;2023-11-18T10:25:48;97463.72;;;7.37;100.00
64610;BME280;51019;46.090;6.350;2023-11-18T10:28:23;97448.91;;;7.37;100.00
64610;BME280;51019;46.090;6.350;2023-11-18T10:30:54;97442.06;;;7.09;100.00
64610;BME280;51019;46.090;6.350;2023-11-18T10:33:24;97425.72;;;7.20;100.00
64610;BME280;51019;46.090;6.350;2023-11-18T10:35:56;97440.00;;;7.67;100.00
64610;BME280;51019;46.090;6.350;2023-11-18T10:38:24;97427.13;;;7.51;100.00
64610;BME280;51019;46.090;6.350;2023-11-18T10:40:56;97454.28;;;7.61;100.00
64610;BME280;51019;46.090;6.350;2023-11-18T10:43:25;97452.91;;;7.68;100.00
64610;BME280;51019;46.090;6.350;2023-11-18T10:46:04;97466.47;;;7.60;100.00
64610;BME280;51019;46.090;6.350;2023-11-18T10:48:39;97441.34;;;7.20;100.00
64610;BME280;51019;46.090;6.350;2023-11-18T10:51:09;97450.41;;;7.54;100.00
64610;BME280;51019;46.090;6.350;2023-11-18T10:53:40;97449.94;;;7.35;100.00
64610;BME280;51019;46.090;6.350;2023-11-18T10:56:19;97462.66;;;7.66;100.00
64610;BME280;51019;46.090;6.350;2023-11-18T10:58:55;97462.78;;;7.90;100.00
64610;BME280;51019;46.090;6.350;2023-11-18T11:01:30;97458.69;;;7.34;100.00
64610;BME280;51019;46.090;6.350;2023-11-18T11:03:58;97474.09;;;7.51;100.00
64610;BME280;51019;46.090;6.350;2023-11-18T11:06:31;97458.84;;;7.45;100.00
64610;BME280;51019;46.090;6.350;2023-11-18T11:09:07;97452.22;;;7.66;100.00
64610;BME280;51019;46.090;6.350;2023-11-18T11:11:46;97429.31;;;7.44;100.00
64610;BME280;51019;46.090;6.350;2023-11-18T11:14:20;97452.53;;;7.87;100.00
64610;BME280;51019;46.090;6.350;2023-11-18T11:16:52;97424.13;;;7.95;100.00
64610;BME280;51019;46.090;6.350;2023-11-18T11:19:25;97446.28;;;7.89;100.00
64610;BME280;51019;46.090;6.350;2023-11-18T11:22:01;97452.94;;;7.93;100.00
64610;BME280;51019;46.090;6.350;2023-11-18T11:24:40;97447.94;;;7.65;100.00
64610;BME280;51019;46.090;6.350;2023-11-18T11:27:21;97438.63;;;7.61;100.00
64610;BME280;51019;46.090;6.350;2023-11-18T11:30:00;97440.09;;;7.90;100.00
64610;BME280;51019;46.090;6.350;2023-11-18T11:32:39;97392.19;;;7.66;100.00
64610;BME280;51019;46.090;6.350;2023-11-18T11:35:22;97421.97;;;7.89;100.00
64610;BME280;51019;46.090;6.350;2023-11-18T11:37:52;97452.31;;;8.02;100.00
64610;BME280;51019;46.090;6.350;2023-11-18T11:40:23;97426.53;;;7.73;100.00
64610;BME280;51019;46.090;6.350;2023-11-18T11:42:52;97464.75;;;7.86;100.00
64610;BME280;51019;46.090;6.350;2023-11-18T11:45:23;97386.75;;;7.56;100.00
64610;BME280;51019;46.090;6.350;2023-11-18T11:47:55;97425.25;;;7.40;100.00
64610;BME280;51019;46.090;6.350;2023-11-18T11:53:36;97411.63;;;7.75;100.00
64610;BME280;51019;46.090;6.350;2023-11-18T11:56:05;97409.84;;;8.00;100.00
64610;BME280;51019;46.090;6.350;2023-11-18T11:58:37;97375.59;;;7.54;100.00
64610;BME280;51019;46.090;6.350;2023-11-18T12:01:22;97415.38;;;7.96;100.00
64610;BME280;51019;46.090;6.350;2023-11-18T12:03:56;97434.78;;;8.05;100.00
64610;BME280;51019;46.090;6.350;2023-11-18T12:06:32;97434.38;;;7.85;100.00
64610;BME280;51019;46.090;6.350;2023-11-18T12:09:03;97436.13;;;7.72;100.00
64610;BME280;51019;46.090;6.350;2023-11-18T12:11:34;97441.88;;;7.64;100.00
64610;BME280;51019;46.090;6.350;2023-11-18T12:14:08;97450.63;;;7.63;100.00
64610;BME280;51019;46.090;6.350;2023-11-18T12:17:04;97448.25;;;7.73;100.00
64610;BME280;51019;46.090;6.350;2023-11-18T12:19:36;97447.00;;;7.91;100.00
64610;BME280;51019;46.090;6.350;2023-11-18T12:22:14;97458.38;;;8.03;100.00
64610;BME280;51019;46.090;6.350;2023-11-18T12:28:09;97455.31;;;7.58;100.00
64610;BME280;51019;46.090;6.350;2023-11-18T12:30:43;97450.28;;;7.43;100.00
64610;BME280;51019;46.090;6.350;2023-11-18T12:33:23;97460.13;;;7.52;100.00
64610;BME280;51019;46.090;6.350;2023-11-18T12:39:49;97448.66;;;7.80;100.00
64610;BME280;51019;46.090;6.350;2023-11-18T12:48:37;97421.00;;;7.64;100.00
64610;BME280;51019;46.090;6.350;2023-11-18T12:51:13;97408.16;;;7.61;100.00
64610;BME280;51019;46.090;6.350;2023-11-18T12:53:51;97392.19;;;7.91;100.00
64610;BME280;51019;46.090;6.350;2023-11-18T12:56:20;97383.63;;;7.64;100.00
64610;BME280;51019;46.090;6.350;2023-11-18T12:58:48;97378.22;;;7.54;100.00
64610;BME280;51019;46.090;6.350;2023-11-18T13:01:16;97370.16;;;7.57;100.00
64610;BME280;51019;46.090;6.350;2023-11-18T13:06:57;97332.94;;;7.55;100.00
64610;BME280;51019;46.090;6.350;2023-11-18T13:09:26;97395.31;;;8.09;100.00
64610;BME280;51019;46.090;6.350;2023-11-18T13:11:56;97385.91;;;7.94;100.00
64610;BME280;51019;46.090;6.350;2023-11-18T13:14:25;97314.13;;;7.25;100.00
64610;BME280;51019;46.090;6.350;2023-11-18T13:16:53;97412.66;;;8.10;100.00
64610;BME280;51019;46.090;6.350;2023-11-18T13:19:24;97378.00;;;7.70;100.00
64610;BME280;51019;46.090;6.350;2023-11-18T13:21:59;97375.47;;;7.81;100.00
64610;BME280;51019;46.090;6.350;2023-11-18T13:24:29;97419.41;;;8.13;100.00
64610;BME280;51019;46.090;6.350;2023-11-18T13:26:58;97402.41;;;8.20;100.00
64610;BME280;51019;46.090;6.350;2023-11-18T13:29:29;97359.84;;;7.56;100.00
64610;BME280;51019;46.090;6.350;2023-11-18T13:31:56;97430.00;;;7.98;100.00
64610;BME280;51019;46.090;6.350;2023-11-18T13:34:26;97368.72;;;7.66;100.00